Terminal Aerodrome Forecast
Issued by NWS

Home | Current Version | Previous Version | Text Only | Print | Product List | Glossary On
Versions: 1 2 3 4 5 6 7 8 9 10 11 12 13 14 15 16 17 18 19 20 21 22 23 24 25 26 27 28 29 30 31 32 33 34 35 36 37 38 39 40 41 42 43 44 45 46
000
FTUS45 KBOU 171832 AAA
TAFAPA
TAF AMD
KAPA 171832Z 1719/1818 VRB04KT P6SM BKN019 BKN150
     FM172000 13005KT P6SM SCT020 BKN150
     FM172200 14006KT P6SM SCT150 BKN220
     FM180200 18007KT P6SM FEW220=

USA.gov is the U.S. government's official web portal to all federal, state and local government web resources and services.